Terminal Aerodrome Forecast
Issued by NWS Twin Cities, MN

Home | Current Version | Previous Version | Text Only | Print | Product List | Glossary On
Versions: 1 2 3 4 5 6 7 8 9 10 11 12 13 14 15 16 17 18 19 20 21 22 23 24 25 26
000
FTUS43 KMPX 230900 AAA
TAFSTC
TAF AMD
KSTC 230902Z 2309/2406 06002KT 5SM BR FEW004
     FM230945 06003KT 4SM BR OVC004
     FM231400 08007KT P6SM BKN008
     FM231700 09011G19KT P6SM SCT025 OVC120
     FM240100 11009KT P6SM SCT040 OVC090=

USA.gov is the U.S. government's official web portal to all federal, state and local government web resources and services.